sensor_id;sensor_type;location;lat;lon;timestamp;pressure;altitude;pressure_sealevel;temperature;humidity
60427;BME280;46274;47.168;27.604;2023-04-24T00:01:10;99606.00;;;11.69;64.95
60427;BME280;46274;47.168;27.604;2023-04-24T00:07:12;99633.97;;;11.48;66.09
60427;BME280;46274;47.168;27.604;2023-04-24T00:13:16;99638.19;;;11.50;65.61
60427;BME280;46274;47.168;27.604;2023-04-24T00:19:19;99606.72;;;10.62;70.44
60427;BME280;46274;47.168;27.604;2023-04-24T00:25:28;99503.06;;;10.38;68.51
60427;BME280;46274;47.168;27.604;2023-04-24T00:31:30;99605.63;;;11.72;64.98
60427;BME280;46274;47.168;27.604;2023-04-24T00:37:36;99600.66;;;11.75;64.61
60427;BME280;46274;47.168;27.604;2023-04-24T00:43:39;99587.66;;;11.71;64.52
60427;BME280;46274;47.168;27.604;2023-04-24T00:49:41;99480.56;;;10.96;65.46
60427;BME280;46274;47.168;27.604;2023-04-24T00:55:48;99609.31;;;11.43;67.19
60427;BME280;46274;47.168;27.604;2023-04-24T01:01:51;99609.19;;;11.72;65.50
60427;BME280;46274;47.168;27.604;2023-04-24T01:07:56;99598.59;;;11.77;65.33
60427;BME280;46274;47.168;27.604;2023-04-24T01:14:01;99583.59;;;11.60;65.43
60427;BME280;46274;47.168;27.604;2023-04-24T01:20:04;99468.47;;;9.89;71.10
60427;BME280;46274;47.168;27.604;2023-04-24T01:26:21;99599.16;;;11.08;68.77
60427;BME280;46274;47.168;27.604;2023-04-24T01:32:24;99463.28;;;10.75;66.45
60427;BME280;46274;47.168;27.604;2023-04-24T01:38:30;99553.53;;;10.76;69.46
60427;BME280;46274;47.168;27.604;2023-04-24T01:44:33;99579.34;;;11.51;66.68
60427;BME280;46274;47.168;27.604;2023-04-24T01:50:36;99559.06;;;11.47;66.98
60427;BME280;46274;47.168;27.604;2023-04-24T01:56:41;99568.63;;;11.43;67.42
60427;BME280;46274;47.168;27.604;2023-04-24T02:02:53;99544.16;;;10.12;73.70
60427;BME280;46274;47.168;27.604;2023-04-24T02:08:58;99520.84;;;10.77;69.79
60427;BME280;46274;47.168;27.604;2023-04-24T02:15:01;99493.53;;;10.42;70.47
60427;BME280;46274;47.168;27.604;2023-04-24T02:21:03;99561.72;;;11.19;68.26
60427;BME280;46274;47.168;27.604;2023-04-24T02:27:14;99426.22;;;10.39;68.23
60427;BME280;46274;47.168;27.604;2023-04-24T02:33:25;99544.63;;;11.18;68.13
60427;BME280;46274;47.168;27.604;2023-04-24T02:39:32;99425.34;;;10.02;70.40
60427;BME280;46274;47.168;27.604;2023-04-24T02:45:37;99448.81;;;10.46;68.88
60427;BME280;46274;47.168;27.604;2023-04-24T02:51:47;99551.31;;;11.01;69.40
60427;BME280;46274;47.168;27.604;2023-04-24T02:57:58;99510.16;;;10.39;70.72
60427;BME280;46274;47.168;27.604;2023-04-24T03:04:03;99548.47;;;10.87;69.45
60427;BME280;46274;47.168;27.604;2023-04-24T03:10:06;99541.81;;;10.90;69.26
60427;BME280;46274;47.168;27.604;2023-04-24T03:16:09;99408.22;;;9.66;71.15
60427;BME280;46274;47.168;27.604;2023-04-24T03:22:12;99547.25;;;10.39;71.24
60427;BME280;46274;47.168;27.604;2023-04-24T03:28:14;99349.91;;;9.33;70.26
60427;BME280;46274;47.168;27.604;2023-04-24T03:34:16;99445.41;;;9.64;72.14
60427;BME280;46274;47.168;27.604;2023-04-24T03:40:24;99556.19;;;10.39;71.44
60427;BME280;46274;47.168;27.604;2023-04-24T03:46:27;99559.06;;;10.53;70.96
60427;BME280;46274;47.168;27.604;2023-04-24T03:52:30;99565.31;;;10.53;70.86
60427;BME280;46274;47.168;27.604;2023-04-24T03:58:32;99577.38;;;10.21;73.67
60427;BME280;46274;47.168;27.604;2023-04-24T04:04:45;99586.38;;;10.51;72.73
60427;BME280;46274;47.168;27.604;2023-04-24T04:10:49;99583.72;;;10.73;70.67
60427;BME280;46274;47.168;27.604;2023-04-24T04:16:56;99486.38;;;10.20;69.97
60427;BME280;46274;47.168;27.604;2023-04-24T04:23:08;99585.44;;;10.95;70.04
60427;BME280;46274;47.168;27.604;2023-04-24T04:29:12;99596.44;;;10.72;71.68
60427;BME280;46274;47.168;27.604;2023-04-24T04:35:19;99595.94;;;10.83;71.74
60427;BME280;46274;47.168;27.604;2023-04-24T04:41:23;99553.19;;;10.64;71.72
60427;BME280;46274;47.168;27.604;2023-04-24T04:47:31;99372.28;;;9.42;73.23
60427;BME280;46274;47.168;27.604;2023-04-24T04:53:44;99572.38;;;10.84;72.49
60427;BME280;46274;47.168;27.604;2023-04-24T04:59:47;99556.88;;;11.14;72.14
60427;BME280;46274;47.168;27.604;2023-04-24T05:05:50;99574.88;;;11.43;72.73
60427;BME280;46274;47.168;27.604;2023-04-24T05:11:56;99397.16;;;10.69;71.31
60427;BME280;46274;47.168;27.604;2023-04-24T05:17:58;99543.59;;;11.90;69.48
60427;BME280;46274;47.168;27.604;2023-04-24T05:24:05;99467.59;;;11.97;68.33
60427;BME280;46274;47.168;27.604;2023-04-24T05:30:08;99565.75;;;12.63;68.04
60427;BME280;46274;47.168;27.604;2023-04-24T05:36:23;99568.03;;;12.66;68.26
60427;BME280;46274;47.168;27.604;2023-04-24T05:42:29;99533.03;;;13.05;67.31
60427;BME280;46274;47.168;27.604;2023-04-24T05:48:32;99530.72;;;12.95;67.07
60427;BME280;46274;47.168;27.604;2023-04-24T05:54:34;99570.59;;;13.36;66.50
60427;BME280;46274;47.168;27.604;2023-04-24T06:00:38;99523.16;;;12.84;65.70
60427;BME280;46274;47.168;27.604;2023-04-24T06:06:43;99563.69;;;13.47;65.23
60427;BME280;46274;47.168;27.604;2023-04-24T06:12:46;99567.66;;;13.58;64.93
60427;BME280;46274;47.168;27.604;2023-04-24T06:18:50;99575.94;;;13.16;64.95
60427;BME280;46274;47.168;27.604;2023-04-24T06:24:59;99573.13;;;13.98;63.52
60427;BME280;46274;47.168;27.604;2023-04-24T06:31:01;99566.38;;;14.27;63.26
60427;BME280;46274;47.168;27.604;2023-04-24T06:37:08;99570.94;;;14.39;62.87
60427;BME280;46274;47.168;27.604;2023-04-24T06:43:13;99489.25;;;14.26;61.83
60427;BME280;46274;47.168;27.604;2023-04-24T06:49:19;99565.41;;;14.73;61.30
60427;BME280;46274;47.168;27.604;2023-04-24T06:55:31;99570.25;;;14.71;61.02
60427;BME280;46274;47.168;27.604;2023-04-24T07:01:53;99569.78;;;14.87;59.88
60427;BME280;46274;47.168;27.604;2023-04-24T07:08:15;99565.53;;;14.98;60.46
60427;BME280;46274;47.168;27.604;2023-04-24T07:14:48;99560.66;;;15.38;61.62
60427;BME280;46274;47.168;27.604;2023-04-24T07:21:08;99557.19;;;15.24;59.25
60427;BME280;46274;47.168;27.604;2023-04-24T07:27:11;99522.91;;;15.60;59.30
60427;BME280;46274;47.168;27.604;2023-04-24T07:33:26;99543.06;;;15.91;58.48
60427;BME280;46274;47.168;27.604;2023-04-24T07:46:22;99524.06;;;15.78;58.45
60427;BME280;46274;47.168;27.604;2023-04-24T07:52:37;99462.78;;;15.42;58.38
60427;BME280;46274;47.168;27.604;2023-04-24T07:59:14;99374.22;;;15.56;57.65
60427;BME280;46274;47.168;27.604;2023-04-24T08:05:22;99420.13;;;15.91;56.91
60427;BME280;46274;47.168;27.604;2023-04-24T08:11:35;99493.28;;;16.81;56.94
60427;BME280;46274;47.168;27.604;2023-04-24T08:17:52;99334.75;;;15.96;55.52
60427;BME280;46274;47.168;27.604;2023-04-24T08:24:05;99494.03;;;17.30;55.49
60427;BME280;46274;47.168;27.604;2023-04-24T08:30:20;99455.03;;;17.05;53.48
60427;BME280;46274;47.168;27.604;2023-04-24T08:36:31;99387.25;;;16.76;53.45
60427;BME280;46274;47.168;27.604;2023-04-24T08:42:47;99474.13;;;17.23;53.04
60427;BME280;46274;47.168;27.604;2023-04-24T08:48:53;99457.00;;;17.28;52.11
60427;BME280;46274;47.168;27.604;2023-04-24T08:55:02;99477.88;;;17.64;52.33
60427;BME280;46274;47.168;27.604;2023-04-24T09:01:24;99473.25;;;18.00;50.53
60427;BME280;46274;47.168;27.604;2023-04-24T09:07:37;99356.00;;;17.78;48.72
60427;BME280;46274;47.168;27.604;2023-04-24T09:13:45;99339.81;;;17.65;48.36
60427;BME280;46274;47.168;27.604;2023-04-24T09:20:08;99428.16;;;18.31;48.06
60427;BME280;46274;47.168;27.604;2023-04-24T09:26:22;99439.28;;;18.82;48.57
60427;BME280;46274;47.168;27.604;2023-04-24T09:32:34;99396.06;;;18.60;47.10
60427;BME280;46274;47.168;27.604;2023-04-24T09:39:09;99437.13;;;18.84;45.03
60427;BME280;46274;47.168;27.604;2023-04-24T09:45:15;99394.00;;;18.96;46.41
60427;BME280;46274;47.168;27.604;2023-04-24T09:51:36;99423.41;;;18.84;44.17
60427;BME280;46274;47.168;27.604;2023-04-24T09:57:59;99408.22;;;18.93;45.01
60427;BME280;46274;47.168;27.604;2023-04-24T10:04:03;99408.00;;;19.11;45.09
60427;BME280;46274;47.168;27.604;2023-04-24T10:10:17;99402.06;;;19.20;44.49
60427;BME280;46274;47.168;27.604;2023-04-24T10:16:26;99289.28;;;18.87;44.15
60427;BME280;46274;47.168;27.604;2023-04-24T10:22:35;99324.69;;;19.23;44.81
60427;BME280;46274;47.168;27.604;2023-04-24T10:28:43;99311.44;;;19.36;42.84
60427;BME280;46274;47.168;27.604;2023-04-24T10:34:46;99380.16;;;19.97;43.13
60427;BME280;46274;47.168;27.604;2023-04-24T10:40:51;99335.97;;;19.43;43.38
60427;BME280;46274;47.168;27.604;2023-04-24T10:47:13;99323.47;;;19.91;42.56
60427;BME280;46274;47.168;27.604;2023-04-24T10:53:20;99359.75;;;20.37;40.35
60427;BME280;46274;47.168;27.604;2023-04-24T10:59:34;99350.81;;;19.81;40.38
60427;BME280;46274;47.168;27.604;2023-04-24T11:06:08;99315.03;;;19.76;40.79
60427;BME280;46274;47.168;27.604;2023-04-24T11:12:11;99350.56;;;19.82;39.39
60427;BME280;46274;47.168;27.604;2023-04-24T11:18:16;99349.63;;;19.38;41.67
60427;BME280;46274;47.168;27.604;2023-04-24T11:30:29;99269.94;;;19.77;38.88
60427;BME280;46274;47.168;27.604;2023-04-24T11:36:46;99241.59;;;19.32;39.24
60427;BME280;46274;47.168;27.604;2023-04-24T11:42:53;99301.13;;;19.66;39.65
60427;BME280;46274;47.168;27.604;2023-04-24T11:48:59;99314.19;;;19.75;39.68
60427;BME280;46274;47.168;27.604;2023-04-24T11:55:29;99281.91;;;19.27;35.65
60427;BME280;46274;47.168;27.604;2023-04-24T12:01:48;99309.66;;;19.47;37.30
60427;BME280;46274;47.168;27.604;2023-04-24T12:07:54;99230.94;;;18.97;36.50
60427;BME280;46274;47.168;27.604;2023-04-24T12:13:56;99291.97;;;19.60;36.65
60427;BME280;46274;47.168;27.604;2023-04-24T12:20:00;99278.41;;;19.53;36.25
60427;BME280;46274;47.168;27.604;2023-04-24T12:26:16;99273.38;;;19.45;36.66
60427;BME280;46274;47.168;27.604;2023-04-24T12:32:22;99270.59;;;19.23;36.54
60427;BME280;46274;47.168;27.604;2023-04-24T12:38:28;99263.72;;;19.21;37.20
60427;BME280;46274;47.168;27.604;2023-04-24T12:44:46;99247.56;;;19.07;38.67
60427;BME280;46274;47.168;27.604;2023-04-24T12:50:49;99205.78;;;19.44;37.63
60427;BME280;46274;47.168;27.604;2023-04-24T12:56:55;99207.88;;;19.59;36.09
60427;BME280;46274;47.168;27.604;2023-04-24T13:02:58;99244.97;;;19.78;35.35
60427;BME280;46274;47.168;27.604;2023-04-24T13:09:05;99235.22;;;20.20;37.73
60427;BME280;46274;47.168;27.604;2023-04-24T13:15:10;99237.53;;;19.57;40.60
60427;BME280;46274;47.168;27.604;2023-04-24T13:21:20;99244.66;;;19.14;41.03
60427;BME280;46274;47.168;27.604;2023-04-24T13:27:26;99232.34;;;18.66;40.96
60427;BME280;46274;47.168;27.604;2023-04-24T13:33:32;99206.91;;;19.04;40.65
60427;BME280;46274;47.168;27.604;2023-04-24T13:39:37;99114.69;;;18.14;40.33
60427;BME280;46274;47.168;27.604;2023-04-24T13:45:39;99248.97;;;18.42;38.82
60427;BME280;46274;47.168;27.604;2023-04-24T13:51:43;99224.94;;;18.33;39.06
60427;BME280;46274;47.168;27.604;2023-04-24T13:57:50;99155.91;;;18.19;39.16
60427;BME280;46274;47.168;27.604;2023-04-24T14:04:00;99251.06;;;18.52;39.07
60427;BME280;46274;47.168;27.604;2023-04-24T14:10:12;99246.88;;;18.78;39.69
60427;BME280;46274;47.168;27.604;2023-04-24T14:16:15;99243.25;;;18.61;39.84
60427;BME280;46274;47.168;27.604;2023-04-24T14:22:33;99049.31;;;17.26;40.06
60427;BME280;46274;47.168;27.604;2023-04-24T14:28:37;99251.00;;;18.47;41.22
60427;BME280;46274;47.168;27.604;2023-04-24T14:34:46;99172.41;;;17.78;41.03
60427;BME280;46274;47.168;27.604;2023-04-24T14:40:49;99239.09;;;17.96;39.14
60427;BME280;46274;47.168;27.604;2023-04-24T14:47:08;99242.75;;;18.01;39.95
60427;BME280;46274;47.168;27.604;2023-04-24T14:53:17;99241.13;;;18.17;40.86
60427;BME280;46274;47.168;27.604;2023-04-24T14:59:22;99234.91;;;18.05;42.14
60427;BME280;46274;47.168;27.604;2023-04-24T15:05:26;99102.00;;;17.05;43.18
60427;BME280;46274;47.168;27.604;2023-04-24T15:11:29;99231.53;;;17.74;42.60
60427;BME280;46274;47.168;27.604;2023-04-24T15:17:36;99219.81;;;17.50;42.89
60427;BME280;46274;47.168;27.604;2023-04-24T15:23:40;99206.97;;;17.51;44.34
60427;BME280;46274;47.168;27.604;2023-04-24T15:29:50;99131.28;;;16.92;45.24
60427;BME280;46274;47.168;27.604;2023-04-24T15:35:58;99196.31;;;17.66;46.18
60427;BME280;46274;47.168;27.604;2023-04-24T15:42:10;99187.72;;;17.74;45.01
60427;BME280;46274;47.168;27.604;2023-04-24T15:48:12;99074.69;;;17.21;46.81
60427;BME280;46274;47.168;27.604;2023-04-24T15:54:18;99130.56;;;17.66;45.21
60427;BME280;46274;47.168;27.604;2023-04-24T16:00:22;99053.44;;;17.12;45.90
60427;BME280;46274;47.168;27.604;2023-04-24T16:06:25;99103.84;;;17.28;46.16
60427;BME280;46274;47.168;27.604;2023-04-24T16:12:28;99163.09;;;17.62;46.72
60427;BME280;46274;47.168;27.604;2023-04-24T16:18:35;99148.47;;;17.16;45.65
60427;BME280;46274;47.168;27.604;2023-04-24T16:24:37;99153.50;;;17.19;45.85
60427;BME280;46274;47.168;27.604;2023-04-24T16:30:41;99098.59;;;16.74;45.87
60427;BME280;46274;47.168;27.604;2023-04-24T16:36:44;99152.69;;;16.95;45.42
60427;BME280;46274;47.168;27.604;2023-04-24T16:42:48;99123.81;;;16.64;45.76
60427;BME280;46274;47.168;27.604;2023-04-24T16:48:51;99148.78;;;16.68;46.45
60427;BME280;46274;47.168;27.604;2023-04-24T16:54:57;99152.94;;;16.47;47.16
60427;BME280;46274;47.168;27.604;2023-04-24T17:01:00;99152.69;;;16.36;47.78
60427;BME280;46274;47.168;27.604;2023-04-24T17:07:03;99094.22;;;15.60;49.06
60427;BME280;46274;47.168;27.604;2023-04-24T17:13:06;99085.97;;;15.37;49.11
60427;BME280;46274;47.168;27.604;2023-04-24T17:19:08;99157.25;;;15.59;49.72
60427;BME280;46274;47.168;27.604;2023-04-24T17:25:11;99082.31;;;14.94;49.30
60427;BME280;46274;47.168;27.604;2023-04-24T17:31:14;99156.97;;;15.18;50.00
60427;BME280;46274;47.168;27.604;2023-04-24T17:37:18;99098.50;;;14.59;50.41
60427;BME280;46274;47.168;27.604;2023-04-24T17:43:25;99155.13;;;14.75;51.21
60427;BME280;46274;47.168;27.604;2023-04-24T17:49:26;99050.59;;;14.01;51.65
60427;BME280;46274;47.168;27.604;2023-04-24T17:55:30;99172.84;;;14.66;52.38
60427;BME280;46274;47.168;27.604;2023-04-24T18:01:34;99045.19;;;13.76;53.04
60427;BME280;46274;47.168;27.604;2023-04-24T18:07:36;99163.19;;;14.20;54.10
60427;BME280;46274;47.168;27.604;2023-04-24T18:13:40;99148.03;;;13.99;54.18
60427;BME280;46274;47.168;27.604;2023-04-24T18:19:43;99143.84;;;13.71;55.79
60427;BME280;46274;47.168;27.604;2023-04-24T18:25:45;99150.22;;;13.59;56.11
60427;BME280;46274;47.168;27.604;2023-04-24T18:31:48;99087.63;;;13.20;56.17
60427;BME280;46274;47.168;27.604;2023-04-24T18:37:51;99005.53;;;12.53;56.90
60427;BME280;46274;47.168;27.604;2023-04-24T18:43:54;99106.06;;;13.12;57.45
60427;BME280;46274;47.168;27.604;2023-04-24T18:49:59;99164.56;;;13.34;58.15
60427;BME280;46274;47.168;27.604;2023-04-24T18:56:02;99120.78;;;12.97;58.60
60427;BME280;46274;47.168;27.604;2023-04-24T19:02:06;99155.03;;;13.12;58.74
60427;BME280;46274;47.168;27.604;2023-04-24T19:08:09;99172.56;;;13.16;58.63
60427;BME280;46274;47.168;27.604;2023-04-24T19:14:11;99175.53;;;13.07;58.90
60427;BME280;46274;47.168;27.604;2023-04-24T19:20:15;99075.41;;;12.39;59.58
60427;BME280;46274;47.168;27.604;2023-04-24T19:26:17;99156.84;;;12.73;59.77
60427;BME280;46274;47.168;27.604;2023-04-24T19:32:19;99150.13;;;12.62;59.98
60427;BME280;46274;47.168;27.604;2023-04-24T19:38:22;99072.50;;;12.14;59.94
60427;BME280;46274;47.168;27.604;2023-04-24T19:44:24;99098.38;;;12.23;60.25
60427;BME280;46274;47.168;27.604;2023-04-24T19:50:27;99050.78;;;11.74;61.49
60427;BME280;46274;47.168;27.604;2023-04-24T19:56:29;99100.69;;;12.20;60.95
60427;BME280;46274;47.168;27.604;2023-04-24T20:02:32;99121.56;;;12.33;61.24
60427;BME280;46274;47.168;27.604;2023-04-24T20:08:37;99143.50;;;12.31;62.02
60427;BME280;46274;47.168;27.604;2023-04-24T20:14:46;99125.56;;;12.04;62.91
60427;BME280;46274;47.168;27.604;2023-04-24T20:20:48;99106.75;;;12.02;62.73
60427;BME280;46274;47.168;27.604;2023-04-24T20:26:51;99136.41;;;12.30;62.28
60427;BME280;46274;47.168;27.604;2023-04-24T20:32:53;98995.31;;;11.44;62.48
60427;BME280;46274;47.168;27.604;2023-04-24T20:38:56;99118.66;;;12.14;62.91
60427;BME280;46274;47.168;27.604;2023-04-24T20:45:00;99128.28;;;12.10;63.74
60427;BME280;46274;47.168;27.604;2023-04-24T20:51:04;99145.59;;;12.03;64.50
60427;BME280;46274;47.168;27.604;2023-04-24T20:57:07;99104.22;;;11.54;65.14
60427;BME280;46274;47.168;27.604;2023-04-24T21:03:09;99119.25;;;11.70;65.15
60427;BME280;46274;47.168;27.604;2023-04-24T21:09:12;99060.75;;;11.27;66.12
60427;BME280;46274;47.168;27.604;2023-04-24T21:15:15;99087.47;;;11.30;66.91
60427;BME280;46274;47.168;27.604;2023-04-24T21:21:18;99111.09;;;11.50;65.97
60427;BME280;46274;47.168;27.604;2023-04-24T21:27:20;99124.03;;;11.41;66.71
60427;BME280;46274;47.168;27.604;2023-04-24T21:33:24;99114.66;;;11.57;66.14
60427;BME280;46274;47.168;27.604;2023-04-24T21:39:26;99095.44;;;11.45;65.46
60427;BME280;46274;47.168;27.604;2023-04-24T21:45:29;99118.38;;;11.43;65.95
60427;BME280;46274;47.168;27.604;2023-04-24T21:51:31;99112.50;;;11.32;66.77
60427;BME280;46274;47.168;27.604;2023-04-24T21:57:34;99079.69;;;11.07;67.15
60427;BME280;46274;47.168;27.604;2023-04-24T22:03:36;99064.25;;;10.95;67.48
60427;BME280;46274;47.168;27.604;2023-04-24T22:09:39;99108.47;;;11.08;67.53
60427;BME280;46274;47.168;27.604;2023-04-24T22:15:41;99110.97;;;11.10;67.35
60427;BME280;46274;47.168;27.604;2023-04-24T22:21:44;99018.84;;;10.48;68.21
60427;BME280;46274;47.168;27.604;2023-04-24T22:27:47;99084.47;;;10.99;67.62
60427;BME280;46274;47.168;27.604;2023-04-24T22:33:49;99079.41;;;10.82;68.61
60427;BME280;46274;47.168;27.604;2023-04-24T22:39:52;99061.41;;;10.61;70.14
60427;BME280;46274;47.168;27.604;2023-04-24T22:45:54;98896.44;;;9.70;69.61
60427;BME280;46274;47.168;27.604;2023-04-24T22:51:57;98960.97;;;10.15;70.01
60427;BME280;46274;47.168;27.604;2023-04-24T22:58:00;99046.44;;;10.72;70.20
60427;BME280;46274;47.168;27.604;2023-04-24T23:04:03;99035.81;;;10.70;69.62
60427;BME280;46274;47.168;27.604;2023-04-24T23:10:06;98909.94;;;10.12;69.25
60427;BME280;46274;47.168;27.604;2023-04-24T23:16:11;99042.72;;;10.86;69.99
60427;BME280;46274;47.168;27.604;2023-04-24T23:22:13;99043.63;;;11.07;69.08
60427;BME280;46274;47.168;27.604;2023-04-24T23:28:17;99024.81;;;10.31;72.62
60427;BME280;46274;47.168;27.604;2023-04-24T23:34:19;99017.22;;;10.61;71.68
60427;BME280;46274;47.168;27.604;2023-04-24T23:40:22;99006.03;;;10.84;70.09
60427;BME280;46274;47.168;27.604;2023-04-24T23:46:24;98996.81;;;10.65;70.42
60427;BME280;46274;47.168;27.604;2023-04-24T23:52:27;99019.38;;;10.85;70.82
60427;BME280;46274;47.168;27.604;2023-04-24T23:58:29;99020.09;;;11.14;68.97
